sensor_id;sensor_type;location;lat;lon;timestamp;pressure;altitude;pressure_sealevel;temperature;humidity
22649;BME280;11491;41.942;24.220;2022-08-19T00:00:19;89931.22;;;16.79;77.45
22649;BME280;11491;41.942;24.220;2022-08-19T00:02:46;89935.34;;;16.55;78.60
22649;BME280;11491;41.942;24.220;2022-08-19T00:05:14;89938.88;;;16.70;77.90
22649;BME280;11491;41.942;24.220;2022-08-19T00:07:41;89941.56;;;16.74;77.55
22649;BME280;11491;41.942;24.220;2022-08-19T00:10:10;89941.16;;;16.68;77.80
22649;BME280;11491;41.942;24.220;2022-08-19T00:12:37;89938.03;;;16.59;78.37
22649;BME280;11491;41.942;24.220;2022-08-19T00:15:08;89931.06;;;16.47;79.18
22649;BME280;11491;41.942;24.220;2022-08-19T00:17:37;89931.06;;;16.54;78.33
22649;BME280;11491;41.942;24.220;2022-08-19T00:20:04;89937.25;;;16.58;78.47
22649;BME280;11491;41.942;24.220;2022-08-19T00:22:31;89923.41;;;16.64;77.14
22649;BME280;11491;41.942;24.220;2022-08-19T00:24:58;89918.78;;;16.61;77.16
22649;BME280;11491;41.942;24.220;2022-08-19T00:27:25;89920.28;;;16.54;77.68
22649;BME280;11491;41.942;24.220;2022-08-19T00:29:52;89921.06;;;16.58;77.15
22649;BME280;11491;41.942;24.220;2022-08-19T00:32:20;89914.03;;;16.32;78.73
22649;BME280;11491;41.942;24.220;2022-08-19T00:34:47;89912.53;;;16.46;77.54
22649;BME280;11491;41.942;24.220;2022-08-19T00:37:14;89907.41;;;16.23;79.21
22649;BME280;11491;41.942;24.220;2022-08-19T00:39:40;89912.47;;;16.28;78.60
22649;BME280;11491;41.942;24.220;2022-08-19T00:42:07;89902.03;;;16.23;79.12
22649;BME280;11491;41.942;24.220;2022-08-19T00:44:34;89905.47;;;16.20;79.21
22649;BME280;11491;41.942;24.220;2022-08-19T00:47:01;89894.34;;;16.32;78.45
22649;BME280;11491;41.942;24.220;2022-08-19T00:49:31;89905.94;;;16.36;77.67
22649;BME280;11491;41.942;24.220;2022-08-19T00:52:05;89895.09;;;16.29;77.88
22649;BME280;11491;41.942;24.220;2022-08-19T00:54:35;89897.81;;;16.29;77.89
22649;BME280;11491;41.942;24.220;2022-08-19T00:57:05;89899.38;;;16.30;77.78
22649;BME280;11491;41.942;24.220;2022-08-19T00:59:34;89882.78;;;16.28;78.35
22649;BME280;11491;41.942;24.220;2022-08-19T01:02:02;89889.31;;;16.27;78.02
22649;BME280;11491;41.942;24.220;2022-08-19T01:04:30;89891.91;;;16.05;78.42
22649;BME280;11491;41.942;24.220;2022-08-19T01:06:57;89889.06;;;15.84;79.45
22649;BME280;11491;41.942;24.220;2022-08-19T01:09:25;89882.16;;;15.83;79.91
22649;BME280;11491;41.942;24.220;2022-08-19T01:11:52;89882.78;;;15.65;80.74
22649;BME280;11491;41.942;24.220;2022-08-19T01:14:19;89881.34;;;15.79;80.30
22649;BME280;11491;41.942;24.220;2022-08-19T01:16:46;89885.56;;;15.80;79.84
22649;BME280;11491;41.942;24.220;2022-08-19T01:19:18;89882.50;;;15.78;79.86
22649;BME280;11491;41.942;24.220;2022-08-19T01:21:53;89885.94;;;15.75;80.33
22649;BME280;11491;41.942;24.220;2022-08-19T01:24:23;89883.69;;;15.84;79.29
22649;BME280;11491;41.942;24.220;2022-08-19T01:26:50;89889.50;;;15.89;78.87
22649;BME280;11491;41.942;24.220;2022-08-19T01:29:17;89891.81;;;15.91;78.32
22649;BME280;11491;41.942;24.220;2022-08-19T01:31:43;89893.66;;;15.76;79.19
22649;BME280;11491;41.942;24.220;2022-08-19T01:34:10;89892.06;;;15.71;79.65
22649;BME280;11491;41.942;24.220;2022-08-19T01:36:39;89891.22;;;15.67;80.33
22649;BME280;11491;41.942;24.220;2022-08-19T01:39:10;89893.63;;;15.73;79.78
22649;BME280;11491;41.942;24.220;2022-08-19T01:41:39;89893.50;;;15.58;81.00
22649;BME280;11491;41.942;24.220;2022-08-19T01:44:07;89895.94;;;15.70;80.73
22649;BME280;11491;41.942;24.220;2022-08-19T01:46:35;89901.13;;;15.49;81.99
22649;BME280;11491;41.942;24.220;2022-08-19T01:49:03;89900.31;;;15.45;82.00
22649;BME280;11491;41.942;24.220;2022-08-19T01:51:31;89908.09;;;15.54;81.50
22649;BME280;11491;41.942;24.220;2022-08-19T01:53:58;89911.19;;;15.59;80.54
22649;BME280;11491;41.942;24.220;2022-08-19T01:56:25;89898.88;;;15.58;79.57
22649;BME280;11491;41.942;24.220;2022-08-19T01:59:00;89904.22;;;15.55;80.00
22649;BME280;11491;41.942;24.220;2022-08-19T02:01:28;89901.88;;;15.46;80.74
22649;BME280;11491;41.942;24.220;2022-08-19T02:03:57;89904.63;;;15.53;80.21
22649;BME280;11491;41.942;24.220;2022-08-19T02:06:26;89918.81;;;15.50;80.74
22649;BME280;11491;41.942;24.220;2022-08-19T02:08:52;89918.81;;;15.50;80.51
22649;BME280;11491;41.942;24.220;2022-08-19T02:11:21;89923.47;;;15.53;80.31
22649;BME280;11491;41.942;24.220;2022-08-19T02:13:48;89914.22;;;15.50;80.49
22649;BME280;11491;41.942;24.220;2022-08-19T02:16:18;89904.84;;;15.34;81.52
22649;BME280;11491;41.942;24.220;2022-08-19T02:18:46;89920.63;;;15.35;81.78
22649;BME280;11491;41.942;24.220;2022-08-19T02:21:14;89914.59;;;15.49;80.42
22649;BME280;11491;41.942;24.220;2022-08-19T02:23:41;89911.88;;;15.49;79.59
22649;BME280;11491;41.942;24.220;2022-08-19T02:26:08;89908.00;;;15.43;80.67
22649;BME280;11491;41.942;24.220;2022-08-19T02:28:35;89914.03;;;15.29;81.86
22649;BME280;11491;41.942;24.220;2022-08-19T02:31:02;89910.16;;;15.26;82.08
22649;BME280;11491;41.942;24.220;2022-08-19T02:33:30;89903.25;;;15.25;82.07
22649;BME280;11491;41.942;24.220;2022-08-19T02:35:57;89907.88;;;15.28;81.32
22649;BME280;11491;41.942;24.220;2022-08-19T02:38:24;89911.81;;;15.42;80.49
22649;BME280;11491;41.942;24.220;2022-08-19T02:40:56;89904.03;;;15.29;80.12
22649;BME280;11491;41.942;24.220;2022-08-19T02:43:23;89910.19;;;15.30;80.75
22649;BME280;11491;41.942;24.220;2022-08-19T02:45:51;89910.84;;;15.16;81.30
22649;BME280;11491;41.942;24.220;2022-08-19T02:48:19;89912.44;;;15.24;80.70
22649;BME280;11491;41.942;24.220;2022-08-19T02:50:49;89913.13;;;15.14;81.41
22649;BME280;11491;41.942;24.220;2022-08-19T02:53:21;89913.06;;;15.07;81.96
22649;BME280;11491;41.942;24.220;2022-08-19T02:55:49;89917.00;;;15.17;81.54
22649;BME280;11491;41.942;24.220;2022-08-19T02:58:16;89904.91;;;15.00;82.33
22649;BME280;11491;41.942;24.220;2022-08-19T03:00:46;89919.84;;;14.94;83.30
22649;BME280;11491;41.942;24.220;2022-08-19T03:03:13;89921.31;;;14.88;83.67
22649;BME280;11491;41.942;24.220;2022-08-19T03:05:41;89916.81;;;14.99;83.21
22649;BME280;11491;41.942;24.220;2022-08-19T03:08:10;89923.06;;;15.06;82.75
22649;BME280;11491;41.942;24.220;2022-08-19T03:10:41;89926.19;;;15.12;82.55
22649;BME280;11491;41.942;24.220;2022-08-19T03:13:10;89914.00;;;15.25;80.61
22649;BME280;11491;41.942;24.220;2022-08-19T03:15:40;89930.88;;;15.22;80.70
22649;BME280;11491;41.942;24.220;2022-08-19T03:18:07;89923.91;;;15.14;81.18
22649;BME280;11491;41.942;24.220;2022-08-19T03:20:40;89918.44;;;15.07;81.78
22649;BME280;11491;41.942;24.220;2022-08-19T03:23:08;89923.81;;;15.07;81.81
22649;BME280;11491;41.942;24.220;2022-08-19T03:25:37;89922.22;;;14.99;82.56
22649;BME280;11491;41.942;24.220;2022-08-19T03:28:05;89916.81;;;14.99;82.41
22649;BME280;11491;41.942;24.220;2022-08-19T03:30:32;89928.50;;;15.14;81.67
22649;BME280;11491;41.942;24.220;2022-08-19T03:32:59;89915.25;;;14.94;82.09
22649;BME280;11491;41.942;24.220;2022-08-19T03:35:27;89931.41;;;14.98;82.42
22649;BME280;11491;41.942;24.220;2022-08-19T03:37:53;89930.22;;;14.92;82.91
22649;BME280;11491;41.942;24.220;2022-08-19T03:40:23;89930.69;;;15.01;81.87
22649;BME280;11491;41.942;24.220;2022-08-19T03:42:49;89932.97;;;14.99;81.96
22649;BME280;11491;41.942;24.220;2022-08-19T03:45:16;89934.44;;;14.93;82.03
22649;BME280;11491;41.942;24.220;2022-08-19T03:47:43;89930.47;;;14.79;82.69
22649;BME280;11491;41.942;24.220;2022-08-19T03:50:11;89940.81;;;14.77;83.25
22649;BME280;11491;41.942;24.220;2022-08-19T03:52:37;89928.94;;;14.78;83.16
22649;BME280;11491;41.942;24.220;2022-08-19T03:55:06;89934.22;;;14.71;83.84
22649;BME280;11491;41.942;24.220;2022-08-19T03:57:34;89936.63;;;14.80;83.33
22649;BME280;11491;41.942;24.220;2022-08-19T04:00:03;89933.13;;;14.76;84.28
22649;BME280;11491;41.942;24.220;2022-08-19T04:02:31;89935.06;;;14.79;83.74
22649;BME280;11491;41.942;24.220;2022-08-19T04:04:58;89940.41;;;14.75;84.95
22649;BME280;11491;41.942;24.220;2022-08-19T04:07:24;89941.31;;;14.86;84.44
22649;BME280;11491;41.942;24.220;2022-08-19T04:09:51;89932.81;;;14.84;84.92
22649;BME280;11491;41.942;24.220;2022-08-19T04:12:18;89941.38;;;14.94;84.24
22649;BME280;11491;41.942;24.220;2022-08-19T04:14:47;89944.94;;;15.01;83.98
22649;BME280;11491;41.942;24.220;2022-08-19T04:17:13;89945.28;;;15.00;83.96
22649;BME280;11491;41.942;24.220;2022-08-19T04:19:40;89936.53;;;15.10;84.26
22649;BME280;11491;41.942;24.220;2022-08-19T04:22:08;89942.81;;;15.21;83.59
22649;BME280;11491;41.942;24.220;2022-08-19T04:24:36;89947.53;;;15.32;83.73
22649;BME280;11491;41.942;24.220;2022-08-19T04:27:04;89938.63;;;15.27;83.57
22649;BME280;11491;41.942;24.220;2022-08-19T04:29:31;89948.53;;;15.16;84.35
22649;BME280;11491;41.942;24.220;2022-08-19T04:31:59;89948.69;;;15.31;84.27
22649;BME280;11491;41.942;24.220;2022-08-19T04:34:28;89950.34;;;15.46;83.51
22649;BME280;11491;41.942;24.220;2022-08-19T04:36:57;89945.81;;;15.54;82.99
22649;BME280;11491;41.942;24.220;2022-08-19T04:39:27;89939.81;;;15.71;81.86
22649;BME280;11491;41.942;24.220;2022-08-19T04:42:15;89946.50;;;15.88;80.57
22649;BME280;11491;41.942;24.220;2022-08-19T04:45:00;89949.25;;;15.95;80.60
22649;BME280;11491;41.942;24.220;2022-08-19T04:47:30;89938.16;;;16.07;80.60
22649;BME280;11491;41.942;24.220;2022-08-19T04:49:58;89940.88;;;16.11;80.18
22649;BME280;11491;41.942;24.220;2022-08-19T04:52:25;89937.09;;;16.23;80.79
22649;BME280;11491;41.942;24.220;2022-08-19T04:54:51;89934.03;;;16.31;80.36
22649;BME280;11491;41.942;24.220;2022-08-19T04:57:21;89938.00;;;16.48;79.95
22649;BME280;11491;41.942;24.220;2022-08-19T04:59:48;89938.84;;;16.63;79.93
22649;BME280;11491;41.942;24.220;2022-08-19T05:02:15;89945.09;;;16.78;78.97
22649;BME280;11491;41.942;24.220;2022-08-19T05:04:43;89933.59;;;16.92;78.04
22649;BME280;11491;41.942;24.220;2022-08-19T05:07:09;89935.19;;;17.14;77.58
22649;BME280;11491;41.942;24.220;2022-08-19T05:09:37;89937.53;;;17.30;76.68
22649;BME280;11491;41.942;24.220;2022-08-19T05:12:04;89944.53;;;17.60;75.46
22649;BME280;11491;41.942;24.220;2022-08-19T05:14:31;89942.59;;;17.71;75.39
22649;BME280;11491;41.942;24.220;2022-08-19T05:16:58;89937.63;;;17.88;74.86
22649;BME280;11491;41.942;24.220;2022-08-19T05:19:25;89939.16;;;18.03;74.58
22649;BME280;11491;41.942;24.220;2022-08-19T05:22:10;89900.91;;;17.97;74.94
22649;BME280;11491;41.942;24.220;2022-08-19T05:24:54;89938.34;;;18.42;74.75
22649;BME280;11491;41.942;24.220;2022-08-19T05:27:21;89942.13;;;18.69;72.91
22649;BME280;11491;41.942;24.220;2022-08-19T05:29:48;89871.44;;;18.46;72.92
22649;BME280;11491;41.942;24.220;2022-08-19T05:32:15;89884.88;;;18.78;72.50
22649;BME280;11491;41.942;24.220;2022-08-19T05:34:42;89920.28;;;19.20;71.90
22649;BME280;11491;41.942;24.220;2022-08-19T05:37:10;89922.06;;;19.44;71.65
22649;BME280;11491;41.942;24.220;2022-08-19T05:39:37;89864.16;;;19.17;70.99
22649;BME280;11491;41.942;24.220;2022-08-19T05:42:07;89871.84;;;19.25;71.46
22649;BME280;11491;41.942;24.220;2022-08-19T05:44:38;89930.72;;;19.84;70.87
22649;BME280;11491;41.942;24.220;2022-08-19T05:47:07;89922.97;;;19.86;70.82
22649;BME280;11491;41.942;24.220;2022-08-19T05:49:35;89936.31;;;20.15;69.80
22649;BME280;11491;41.942;24.220;2022-08-19T05:52:03;89854.47;;;19.75;69.01
22649;BME280;11491;41.942;24.220;2022-08-19T05:54:32;89928.66;;;20.48;67.88
22649;BME280;11491;41.942;24.220;2022-08-19T05:57:01;89928.50;;;20.62;67.59
22649;BME280;11491;41.942;24.220;2022-08-19T05:59:28;89914.63;;;20.56;67.64
22649;BME280;11491;41.942;24.220;2022-08-19T06:01:55;89880.16;;;20.50;66.69
22649;BME280;11491;41.942;24.220;2022-08-19T06:04:23;89884.84;;;20.83;66.13
22649;BME280;11491;41.942;24.220;2022-08-19T06:06:52;89939.22;;;21.45;64.48
22649;BME280;11491;41.942;24.220;2022-08-19T06:09:20;89938.31;;;21.55;63.76
22649;BME280;11491;41.942;24.220;2022-08-19T06:11:50;89878.50;;;21.24;63.95
22649;BME280;11491;41.942;24.220;2022-08-19T06:14:21;89885.59;;;21.49;63.80
22649;BME280;11491;41.942;24.220;2022-08-19T06:16:50;89884.47;;;21.70;63.60
22649;BME280;11491;41.942;24.220;2022-08-19T06:19:19;89876.09;;;22.08;62.84
22649;BME280;11491;41.942;24.220;2022-08-19T06:21:48;89873.81;;;22.30;61.03
22649;BME280;11491;41.942;24.220;2022-08-19T06:24:18;89914.13;;;22.82;60.18
22649;BME280;11491;41.942;24.220;2022-08-19T06:26:46;89877.03;;;22.88;59.85
22649;BME280;11491;41.942;24.220;2022-08-19T06:29:17;89943.44;;;23.58;59.87
22649;BME280;11491;41.942;24.220;2022-08-19T06:31:46;89891.41;;;23.49;59.27
22649;BME280;11491;41.942;24.220;2022-08-19T06:34:15;89933.63;;;23.97;58.60
22649;BME280;11491;41.942;24.220;2022-08-19T06:36:45;89888.34;;;23.83;58.33
22649;BME280;11491;41.942;24.220;2022-08-19T06:39:14;89830.91;;;23.70;59.52
22649;BME280;11491;41.942;24.220;2022-08-19T06:41:44;89930.94;;;24.62;58.56
22649;BME280;11491;41.942;24.220;2022-08-19T06:44:11;89936.53;;;24.88;56.54
22649;BME280;11491;41.942;24.220;2022-08-19T06:46:40;89886.53;;;24.75;52.64
22649;BME280;11491;41.942;24.220;2022-08-19T06:49:08;89927.88;;;25.35;52.37
22649;BME280;11491;41.942;24.220;2022-08-19T06:51:37;89930.66;;;25.61;51.58
22649;BME280;11491;41.942;24.220;2022-08-19T06:54:04;89926.22;;;25.79;49.32
22649;BME280;11491;41.942;24.220;2022-08-19T06:56:32;89883.25;;;25.64;47.83
22649;BME280;11491;41.942;24.220;2022-08-19T06:59:00;89891.94;;;25.75;48.28
22649;BME280;11491;41.942;24.220;2022-08-19T07:01:27;89890.28;;;25.77;45.42
22649;BME280;11491;41.942;24.220;2022-08-19T07:03:56;89939.06;;;25.95;44.67
22649;BME280;11491;41.942;24.220;2022-08-19T07:06:22;89933.16;;;25.97;44.63
22649;BME280;11491;41.942;24.220;2022-08-19T07:08:49;89892.34;;;25.61;44.02
22649;BME280;11491;41.942;24.220;2022-08-19T07:11:17;89879.41;;;25.48;47.30
22649;BME280;11491;41.942;24.220;2022-08-19T07:13:46;89913.97;;;25.84;43.87
22649;BME280;11491;41.942;24.220;2022-08-19T07:16:15;89886.66;;;25.68;44.98
22649;BME280;11491;41.942;24.220;2022-08-19T07:18:44;89932.06;;;25.94;44.64
22649;BME280;11491;41.942;24.220;2022-08-19T07:21:16;89935.22;;;25.93;44.24
22649;BME280;11491;41.942;24.220;2022-08-19T07:23:43;89932.41;;;25.96;43.61
22649;BME280;11491;41.942;24.220;2022-08-19T07:26:13;89892.59;;;25.79;45.15
22649;BME280;11491;41.942;24.220;2022-08-19T07:28:41;89914.72;;;26.23;44.95
22649;BME280;11491;41.942;24.220;2022-08-19T07:31:10;89867.66;;;26.03;44.86
22649;BME280;11491;41.942;24.220;2022-08-19T07:33:38;89926.66;;;26.42;46.64
22649;BME280;11491;41.942;24.220;2022-08-19T07:36:08;89913.84;;;26.52;45.24
22649;BME280;11491;41.942;24.220;2022-08-19T07:38:38;89931.56;;;26.73;43.60
22649;BME280;11491;41.942;24.220;2022-08-19T07:41:06;89865.31;;;26.39;45.40
22649;BME280;11491;41.942;24.220;2022-08-19T07:43:33;89932.38;;;27.08;43.21
22649;BME280;11491;41.942;24.220;2022-08-19T07:46:00;89881.34;;;26.76;43.94
22649;BME280;11491;41.942;24.220;2022-08-19T07:48:27;89937.19;;;27.39;45.22
22649;BME280;11491;41.942;24.220;2022-08-19T07:51:05;89921.94;;;27.38;44.10
22649;BME280;11491;41.942;24.220;2022-08-19T07:53:35;89927.66;;;27.75;45.93
22649;BME280;11491;41.942;24.220;2022-08-19T07:56:04;89938.16;;;27.89;44.39
22649;BME280;11491;41.942;24.220;2022-08-19T07:58:32;89889.06;;;27.47;41.29
22649;BME280;11491;41.942;24.220;2022-08-19T08:01:00;89939.06;;;27.86;43.33
22649;BME280;11491;41.942;24.220;2022-08-19T08:03:28;89936.72;;;28.06;43.90
22649;BME280;11491;41.942;24.220;2022-08-19T08:06:09;89934.19;;;28.21;42.55
22649;BME280;11491;41.942;24.220;2022-08-19T08:08:53;89939.22;;;28.23;43.02
22649;BME280;11491;41.942;24.220;2022-08-19T08:11:46;89936.50;;;28.32;41.57
22649;BME280;11491;41.942;24.220;2022-08-19T08:14:15;89925.22;;;28.39;43.12
22649;BME280;11491;41.942;24.220;2022-08-19T08:16:42;89934.47;;;28.45;41.33
22649;BME280;11491;41.942;24.220;2022-08-19T08:19:11;89901.22;;;28.21;43.43
22649;BME280;11491;41.942;24.220;2022-08-19T08:21:40;89937.22;;;28.45;43.90
22649;BME280;11491;41.942;24.220;2022-08-19T08:24:07;89928.41;;;28.60;41.92
22649;BME280;11491;41.942;24.220;2022-08-19T08:26:34;89915.84;;;28.59;42.37
22649;BME280;11491;41.942;24.220;2022-08-19T08:29:02;89923.84;;;28.75;40.96
22649;BME280;11491;41.942;24.220;2022-08-19T08:31:29;89867.19;;;28.37;41.77
22649;BME280;11491;41.942;24.220;2022-08-19T08:33:56;89931.69;;;28.95;43.63
22649;BME280;11491;41.942;24.220;2022-08-19T08:36:23;89931.88;;;29.10;42.89
22649;BME280;11491;41.942;24.220;2022-08-19T08:38:49;89923.31;;;29.26;41.02
22649;BME280;11491;41.942;24.220;2022-08-19T08:41:22;89925.75;;;29.42;40.60
22649;BME280;11491;41.942;24.220;2022-08-19T08:43:55;89899.78;;;29.34;39.77
22649;BME280;11491;41.942;24.220;2022-08-19T08:46:29;89902.84;;;29.27;39.49
22649;BME280;11491;41.942;24.220;2022-08-19T08:49:03;89920.41;;;29.57;41.69
22649;BME280;11491;41.942;24.220;2022-08-19T08:51:37;89916.75;;;29.70;39.73
22649;BME280;11491;41.942;24.220;2022-08-19T08:54:07;89917.31;;;29.74;37.01
22649;BME280;11491;41.942;24.220;2022-08-19T08:56:34;89923.00;;;29.70;37.70
22649;BME280;11491;41.942;24.220;2022-08-19T08:59:05;89903.13;;;29.57;38.75
22649;BME280;11491;41.942;24.220;2022-08-19T09:01:36;89876.19;;;29.52;39.21
22649;BME280;11491;41.942;24.220;2022-08-19T09:04:04;89907.06;;;29.83;38.54
22649;BME280;11491;41.942;24.220;2022-08-19T09:06:37;89913.75;;;30.01;38.54
22649;BME280;11491;41.942;24.220;2022-08-19T09:09:10;89914.03;;;30.12;36.99
22649;BME280;11491;41.942;24.220;2022-08-19T09:11:56;89915.84;;;30.24;38.40
22649;BME280;11491;41.942;24.220;2022-08-19T09:14:35;89912.13;;;30.37;39.46
22649;BME280;11491;41.942;24.220;2022-08-19T09:17:09;89919.38;;;30.58;37.18
22649;BME280;11491;41.942;24.220;2022-08-19T09:19:48;89911.34;;;30.69;37.98
22649;BME280;11491;41.942;24.220;2022-08-19T09:22:15;89912.88;;;30.70;34.75
22649;BME280;11491;41.942;24.220;2022-08-19T09:24:42;89905.19;;;30.84;37.63
22649;BME280;11491;41.942;24.220;2022-08-19T09:27:09;89898.00;;;31.01;36.29
22649;BME280;11491;41.942;24.220;2022-08-19T09:29:35;89899.94;;;31.10;37.56
22649;BME280;11491;41.942;24.220;2022-08-19T09:32:03;89893.69;;;31.24;35.46
22649;BME280;11491;41.942;24.220;2022-08-19T09:34:32;89897.41;;;31.45;36.96
22649;BME280;11491;41.942;24.220;2022-08-19T09:36:59;89886.09;;;31.34;35.46
22649;BME280;11491;41.942;24.220;2022-08-19T09:39:26;89875.13;;;31.25;36.08
22649;BME280;11491;41.942;24.220;2022-08-19T09:41:53;89883.31;;;31.43;37.01
22649;BME280;11491;41.942;24.220;2022-08-19T09:44:23;89889.25;;;31.66;35.13
22649;BME280;11491;41.942;24.220;2022-08-19T09:46:49;89898.22;;;31.75;34.32
22649;BME280;11491;41.942;24.220;2022-08-19T09:49:20;89900.66;;;31.59;35.31
22649;BME280;11491;41.942;24.220;2022-08-19T09:51:51;89843.44;;;31.35;36.17
22649;BME280;11491;41.942;24.220;2022-08-19T09:54:19;89883.34;;;31.73;34.52
22649;BME280;11491;41.942;24.220;2022-08-19T09:56:45;89890.19;;;31.92;34.84
22649;BME280;11491;41.942;24.220;2022-08-19T09:59:12;89887.44;;;31.92;33.28
22649;BME280;11491;41.942;24.220;2022-08-19T10:01:39;89884.78;;;31.83;35.31
22649;BME280;11491;41.942;24.220;2022-08-19T10:04:06;89874.81;;;32.01;34.39
22649;BME280;11491;41.942;24.220;2022-08-19T10:06:35;89880.00;;;32.28;33.52
22649;BME280;11491;41.942;24.220;2022-08-19T10:09:05;89877.81;;;32.32;33.15
22649;BME280;11491;41.942;24.220;2022-08-19T10:11:33;89874.91;;;32.42;33.79
22649;BME280;11491;41.942;24.220;2022-08-19T10:14:00;89872.25;;;32.47;33.40
22649;BME280;11491;41.942;24.220;2022-08-19T10:16:27;89869.97;;;32.46;31.84
22649;BME280;11491;41.942;24.220;2022-08-19T10:18:54;89855.41;;;32.30;32.74
22649;BME280;11491;41.942;24.220;2022-08-19T10:21:24;89866.97;;;32.64;31.26
22649;BME280;11491;41.942;24.220;2022-08-19T10:23:54;89872.56;;;32.85;31.79
22649;BME280;11491;41.942;24.220;2022-08-19T10:26:25;89865.09;;;33.11;31.38
22649;BME280;11491;41.942;24.220;2022-08-19T10:28:52;89869.88;;;33.31;30.31
22649;BME280;11491;41.942;24.220;2022-08-19T10:31:21;89862.19;;;33.41;30.24
22649;BME280;11491;41.942;24.220;2022-08-19T10:33:49;89860.03;;;33.51;30.32
22649;BME280;11491;41.942;24.220;2022-08-19T10:36:24;89871.09;;;33.51;29.74
22649;BME280;11491;41.942;24.220;2022-08-19T10:38:53;89861.97;;;33.44;30.60
22649;BME280;11491;41.942;24.220;2022-08-19T10:41:25;89858.31;;;33.33;30.04
22649;BME280;11491;41.942;24.220;2022-08-19T10:43:55;89856.13;;;33.37;31.21
22649;BME280;11491;41.942;24.220;2022-08-19T10:46:25;89858.19;;;33.42;29.38
22649;BME280;11491;41.942;24.220;2022-08-19T10:48:53;89864.75;;;33.24;30.55
22649;BME280;11491;41.942;24.220;2022-08-19T10:51:20;89864.13;;;33.35;31.35
22649;BME280;11491;41.942;24.220;2022-08-19T10:54:05;89867.72;;;33.41;28.69
22649;BME280;11491;41.942;24.220;2022-08-19T10:56:34;89844.81;;;33.40;29.77
22649;BME280;11491;41.942;24.220;2022-08-19T10:59:20;89854.56;;;33.36;29.64
22649;BME280;11491;41.942;24.220;2022-08-19T11:01:47;89855.13;;;33.60;31.77
22649;BME280;11491;41.942;24.220;2022-08-19T11:04:15;89848.06;;;33.59;29.73
22649;BME280;11491;41.942;24.220;2022-08-19T11:06:43;89854.97;;;33.70;28.75
22649;BME280;11491;41.942;24.220;2022-08-19T11:09:13;89854.84;;;33.58;28.43
22649;BME280;11491;41.942;24.220;2022-08-19T11:11:42;89860.25;;;33.47;30.09
22649;BME280;11491;41.942;24.220;2022-08-19T11:14:10;89859.63;;;33.58;28.28
22649;BME280;11491;41.942;24.220;2022-08-19T11:16:38;89853.75;;;33.76;29.09
22649;BME280;11491;41.942;24.220;2022-08-19T11:19:06;89853.56;;;33.80;29.05
22649;BME280;11491;41.942;24.220;2022-08-19T11:21:35;89829.41;;;33.86;30.79
22649;BME280;11491;41.942;24.220;2022-08-19T11:24:05;89854.72;;;34.25;28.13
22649;BME280;11491;41.942;24.220;2022-08-19T11:26:32;89856.47;;;34.23;27.92
22649;BME280;11491;41.942;24.220;2022-08-19T11:29:01;89847.53;;;34.39;26.98
22649;BME280;11491;41.942;24.220;2022-08-19T11:31:30;89844.53;;;34.48;27.10
22649;BME280;11491;41.942;24.220;2022-08-19T11:33:58;89843.16;;;34.59;27.82
22649;BME280;11491;41.942;24.220;2022-08-19T11:36:27;89834.22;;;34.49;26.49
22649;BME280;11491;41.942;24.220;2022-08-19T11:38:54;89845.38;;;34.23;28.43
22649;BME280;11491;41.942;24.220;2022-08-19T11:41:22;89833.75;;;34.19;26.59
22649;BME280;11491;41.942;24.220;2022-08-19T11:43:50;89841.88;;;34.28;27.15
22649;BME280;11491;41.942;24.220;2022-08-19T11:46:19;89830.31;;;34.03;27.63
22649;BME280;11491;41.942;24.220;2022-08-19T11:48:47;89834.06;;;34.00;27.52
22649;BME280;11491;41.942;24.220;2022-08-19T11:51:22;89754.13;;;33.61;28.39
22649;BME280;11491;41.942;24.220;2022-08-19T11:53:51;89824.88;;;34.46;26.18
22649;BME280;11491;41.942;24.220;2022-08-19T11:56:19;89830.59;;;34.69;28.86
22649;BME280;11491;41.942;24.220;2022-08-19T11:58:46;89794.81;;;34.82;26.26
22649;BME280;11491;41.942;24.220;2022-08-19T12:01:15;89824.97;;;35.01;26.04
22649;BME280;11491;41.942;24.220;2022-08-19T12:03:44;89823.16;;;34.98;26.84
22649;BME280;11491;41.942;24.220;2022-08-19T12:06:13;89820.03;;;35.33;26.42
22649;BME280;11491;41.942;24.220;2022-08-19T12:08:40;89789.94;;;35.20;23.79
22649;BME280;11491;41.942;24.220;2022-08-19T12:11:07;89803.34;;;35.27;26.63
22649;BME280;11491;41.942;24.220;2022-08-19T12:13:35;89819.13;;;35.58;27.53
22649;BME280;11491;41.942;24.220;2022-08-19T12:16:07;89803.09;;;35.25;25.48
22649;BME280;11491;41.942;24.220;2022-08-19T12:18:34;89804.63;;;35.26;25.03
22649;BME280;11491;41.942;24.220;2022-08-19T12:21:03;89803.91;;;35.37;26.05
22649;BME280;11491;41.942;24.220;2022-08-19T12:23:30;89803.94;;;35.48;26.64
22649;BME280;11491;41.942;24.220;2022-08-19T12:25:57;89795.91;;;35.67;26.96
22649;BME280;11491;41.942;24.220;2022-08-19T12:28:25;89794.53;;;35.23;25.17
22649;BME280;11491;41.942;24.220;2022-08-19T12:30:52;89796.69;;;35.08;26.54
22649;BME280;11491;41.942;24.220;2022-08-19T12:33:19;89799.31;;;35.23;27.39
22649;BME280;11491;41.942;24.220;2022-08-19T12:35:49;89788.28;;;35.56;25.68
22649;BME280;11491;41.942;24.220;2022-08-19T12:38:18;89786.59;;;35.82;26.07
22649;BME280;11491;41.942;24.220;2022-08-19T12:40:45;89785.06;;;35.92;25.32
22649;BME280;11491;41.942;24.220;2022-08-19T12:43:13;89756.19;;;35.50;25.10
22649;BME280;11491;41.942;24.220;2022-08-19T12:45:43;89771.91;;;35.64;26.67
22649;BME280;11491;41.942;24.220;2022-08-19T12:48:10;89776.97;;;35.71;27.22
22649;BME280;11491;41.942;24.220;2022-08-19T12:50:39;89785.06;;;35.69;25.36
22649;BME280;11491;41.942;24.220;2022-08-19T12:53:06;89780.50;;;35.77;25.14
22649;BME280;11491;41.942;24.220;2022-08-19T12:58:41;89779.00;;;35.71;26.64
22649;BME280;11491;41.942;24.220;2022-08-19T13:01:11;89772.94;;;35.95;27.65